Terminal Aerodrome Forecast
Issued by NWS Tulsa, OK

Home | Current Version | Previous Version | Text Only | Print | Product List | Glossary On
Versions: 1 2 3 4 5 6 7 8 9 10 11 12 13 14
000
FTUS44 KTSA 291100
TAFFSM
TAF
KFSM 291132Z 2912/3012 25009KT P6SM BKN250
     FM291600 33014G20KT P6SM BKN250
      TEMPO 2916/2920 BKN025
     FM300000 35010KT P6SM SCT250
     FM300300 34004KT P6SM SCT250=

USA.gov is the U.S. government's official web portal to all federal, state and local government web resources and services.